Time;durP1;ratioP1;P1;durP2;ratioP2;P2;SDS_P1;SDS_P2;PMS_P1;PMS_P2;Temp;Humidity;BMP_temperature;BMP_pressure;BME280_temperature;BME280_humidity;BME280_pressure;Samples;Min_cycle;Max_cycle;Signal;HPM_P1;HPM_P2
2022/03/25 00:01:28;;;;;;;7.05;4.10;;;11.70;86.60;;;;;;1904336;75;21142;-87
2022/03/25 00:04:20;;;;;;;5.80;3.52;;;11.60;87.40;;;;;;1904372;75;21048;-87
2022/03/25 00:07:12;;;;;;;6.15;3.83;;;11.60;87.80;;;;;;1904576;75;21059;-87
2022/03/25 00:10:04;;;;;;;6.78;4.12;;;11.60;88.80;;;;;;1916484;74;21085;-87
2022/03/25 00:12:56;;;;;;;8.53;4.00;;;11.60;89.10;;;;;;1915697;74;21055;-87
2022/03/25 00:15:47;;;;;;;5.62;3.85;;;11.50;89.80;;;;;;1914586;74;21055;-87
2022/03/25 00:18:39;;;;;;;6.90;3.70;;;11.40;89.90;;;;;;1904604;75;21099;-88
2022/03/25 00:21:31;;;;;;;6.80;3.95;;;11.40;90.80;;;;;;1904802;75;21605;-87
2022/03/25 00:24:24;;;;;;;5.85;3.98;;;11.30;90.70;;;;;;1912558;74;21084;-87
2022/03/25 00:27:16;;;;;;;4.15;3.20;;;11.30;90.90;;;;;;1915483;74;21103;-87
2022/03/25 00:30:10;;;;;;;7.30;3.75;;;11.30;91.00;;;;;;1917914;74;21122;-88
2022/03/25 00:33:04;;;;;;;5.30;3.60;;;11.30;91.10;;;;;;1904650;75;21138;-87
2022/03/25 00:35:58;;;;;;;7.60;4.00;;;11.20;91.20;;;;;;1915510;74;21107;-87
2022/03/25 00:38:50;;;;;;;5.30;3.80;;;11.20;91.50;;;;;;1910452;74;21205;-87
2022/03/25 00:41:41;;;;;;;6.25;3.70;;;11.20;91.70;;;;;;1904726;75;21119;-88
2022/03/25 00:44:33;;;;;;;6.15;3.70;;;11.20;91.80;;;;;;1904526;75;21064;-87
2022/03/25 00:50:06;;;;;;;6.80;4.30;;;11.10;92.20;;;;;;1952294;72;22129;-86
2022/03/25 00:53:16;;;;;;;5.70;3.72;;;11.00;92.70;;;;;;1888355;75;21167;-88
2022/03/25 00:56:08;;;;;;;5.87;3.95;;;11.00;92.60;;;;;;1897371;75;21188;-87
2022/03/25 00:58:59;;;;;;;5.22;3.72;;;11.00;92.80;;;;;;1900049;75;21089;-87
2022/03/25 01:01:51;;;;;;;5.85;4.15;;;11.00;93.50;;;;;;1895749;75;21093;-87
2022/03/25 01:04:44;;;;;;;4.37;3.47;;;10.90;93.40;;;;;;1895813;75;21142;-87
2022/03/25 01:07:35;;;;;;;6.60;3.80;;;10.90;93.70;;;;;;1895572;75;21144;-87
2022/03/25 01:10:28;;;;;;;3.87;3.37;;;10.80;93.90;;;;;;1901610;75;21224;-87
2022/03/25 01:13:19;;;;;;;5.12;3.77;;;10.70;94.00;;;;;;1896636;75;21491;-86
2022/03/25 01:16:11;;;;;;;6.15;3.83;;;10.70;94.70;;;;;;1895676;75;21709;-86
2022/03/25 01:19:03;;;;;;;6.33;3.60;;;10.70;94.80;;;;;;1895293;75;21102;-87
2022/03/25 01:21:55;;;;;;;6.67;3.90;;;10.60;95.10;;;;;;1899735;75;21073;-86
2022/03/25 01:24:46;;;;;;;6.28;3.42;;;10.50;95.80;;;;;;1897488;75;21086;-87
2022/03/25 01:27:38;;;;;;;4.80;3.70;;;10.40;98.60;;;;;;1887907;75;21176;-87
2022/03/25 01:30:30;;;;;;;5.28;3.80;;;10.40;98.60;;;;;;1906920;75;21180;-87
2022/03/25 01:33:23;;;;;;;5.12;3.62;;;10.30;98.80;;;;;;1884516;76;21066;-87
2022/03/25 01:36:15;;;;;;;5.45;3.58;;;10.30;99.90;;;;;;1899167;75;21150;-87
2022/03/25 01:39:07;;;;;;;5.97;4.47;;;10.20;99.90;;;;;;1886104;75;21130;-87
2022/03/25 01:41:59;;;;;;;5.25;3.50;;;10.10;99.90;;;;;;1884991;76;21061;-86
2022/03/25 01:44:53;;;;;;;5.30;3.90;;;10.10;99.90;;;;;;1906680;75;21050;-86
2022/03/25 01:47:45;;;;;;;5.50;3.62;;;10.10;99.90;;;;;;1884881;75;21053;-87
2022/03/25 01:50:37;;;;;;;5.33;3.83;;;10.10;99.90;;;;;;1900017;73;21062;-85
2022/03/25 01:53:29;;;;;;;7.42;4.20;;;10.00;99.90;;;;;;1898214;75;21094;-86
2022/03/25 01:56:23;;;;;;;5.60;3.77;;;9.80;99.90;;;;;;1894178;76;21489;-86
2022/03/25 01:59:14;;;;;;;6.45;3.95;;;9.80;99.90;;;;;;1912653;74;21124;-89
2022/03/25 02:02:08;;;;;;;5.42;3.60;;;9.80;99.90;;;;;;1906822;74;21039;-86
2022/03/25 02:05:00;;;;;;;4.87;3.83;;;9.80;99.90;;;;;;1850736;76;21403;-86
2022/03/25 02:07:52;;;;;;;6.62;4.30;;;9.90;99.90;;;;;;1888444;75;21051;-87
2022/03/25 02:10:44;;;;;;;4.83;3.83;;;9.90;99.90;;;;;;1915626;75;21148;-87
2022/03/25 02:13:37;;;;;;;7.00;3.75;;;9.80;99.90;;;;;;1900463;75;21120;-88
2022/03/25 02:16:40;;;;;;;5.08;4.03;;;9.80;99.90;;;;;;1895625;75;21152;-87
2022/03/25 02:19:34;;;;;;;9.60;4.12;;;9.80;99.90;;;;;;1895507;75;21042;-86
2022/03/25 02:22:25;;;;;;;6.85;3.98;;;9.90;99.90;;;;;;1891342;74;21323;-86
2022/03/25 02:25:20;;;;;;;5.00;3.87;;;9.90;99.90;;;;;;1904927;75;21325;-88
2022/03/25 02:28:13;;;;;;;6.92;4.35;;;9.90;99.90;;;;;;1900449;75;21111;-87
2022/03/25 02:31:06;;;;;;;6.30;4.42;;;9.90;99.90;;;;;;1896138;75;21047;-87
2022/03/25 02:34:02;;;;;;;7.50;4.00;;;9.90;99.90;;;;;;1853120;76;21187;-87
2022/03/25 02:36:53;;;;;;;11.15;3.98;;;9.80;99.90;;;;;;1907861;75;21122;-87
2022/03/25 02:39:45;;;;;;;6.15;4.12;;;9.80;99.90;;;;;;1917194;75;21063;-87
2022/03/25 02:42:36;;;;;;;7.60;4.10;;;9.70;99.90;;;;;;1897592;75;21174;-87
2022/03/25 02:45:28;;;;;;;7.28;4.58;;;9.60;99.90;;;;;;1851198;76;21152;-87
2022/03/25 02:48:20;;;;;;;7.53;3.92;;;9.50;99.90;;;;;;1906170;75;21043;-87
2022/03/25 02:51:13;;;;;;;6.97;4.42;;;9.50;99.90;;;;;;1876446;75;21107;-89
2022/03/25 02:54:05;;;;;;;5.90;3.90;;;9.40;99.90;;;;;;1886105;75;21052;-88
2022/03/25 02:56:58;;;;;;;8.18;3.90;;;9.40;99.90;;;;;;1873991;75;21055;-88
2022/03/25 02:59:50;;;;;;;7.53;4.42;;;9.40;99.90;;;;;;1906272;75;21125;-89
2022/03/25 03:02:42;;;;;;;5.87;3.80;;;9.40;99.90;;;;;;1892909;75;21067;-89
2022/03/25 03:05:34;;;;;;;7.08;4.37;;;9.40;99.90;;;;;;1889417;75;21070;-89
2022/03/25 03:08:26;;;;;;;6.22;4.12;;;9.40;99.90;;;;;;1894411;75;21048;-88
2022/03/25 03:11:18;;;;;;;5.87;4.20;;;9.30;99.90;;;;;;1906198;75;21055;-87
2022/03/25 03:14:10;;;;;;;4.92;3.85;;;9.30;99.90;;;;;;1893693;75;21153;-88
2022/03/25 03:17:02;;;;;;;4.42;3.77;;;9.30;99.90;;;;;;1888016;75;21063;-87
2022/03/25 03:19:54;;;;;;;6.58;3.87;;;9.30;99.90;;;;;;1883908;75;21487;-87
2022/03/25 03:22:45;;;;;;;5.97;3.62;;;9.20;99.90;;;;;;1882793;75;21158;-86
2022/03/25 03:25:37;;;;;;;5.12;4.22;;;9.10;99.90;;;;;;1883169;75;21055;-86
2022/03/25 03:28:28;;;;;;;4.30;3.52;;;8.90;99.90;;;;;;1886197;75;21051;-86
2022/03/25 03:31:20;;;;;;;6.65;3.75;;;8.90;99.90;;;;;;1897732;75;21253;-86
2022/03/25 03:34:11;;;;;;;6.00;3.98;;;8.90;99.90;;;;;;1886453;75;21622;-86
2022/03/25 03:37:03;;;;;;;5.65;3.90;;;8.90;99.90;;;;;;1906394;75;21641;-86
2022/03/25 03:39:54;;;;;;;5.47;3.77;;;8.80;99.90;;;;;;1872190;75;21088;-87
2022/03/25 03:42:46;;;;;;;6.15;3.87;;;8.90;99.90;;;;;;1886412;75;21106;-86
2022/03/25 03:45:37;;;;;;;5.67;3.60;;;8.90;99.90;;;;;;1883154;75;21056;-88
2022/03/25 03:48:29;;;;;;;6.30;3.73;;;8.90;99.90;;;;;;1882624;75;21345;-88
2022/03/25 03:51:20;;;;;;;5.95;3.87;;;8.90;99.90;;;;;;1882165;75;21241;-87
2022/03/25 03:54:12;;;;;;;7.67;3.87;;;8.90;99.90;;;;;;1888024;75;21100;-87
2022/03/25 03:57:04;;;;;;;6.87;3.90;;;8.90;99.90;;;;;;1882896;75;21157;-87
2022/03/25 03:59:55;;;;;;;9.28;4.00;;;8.90;99.90;;;;;;1883315;75;21066;-87
2022/03/25 04:02:47;;;;;;;6.62;4.22;;;9.00;99.90;;;;;;1883035;75;21683;-87
2022/03/25 04:05:38;;;;;;;9.45;3.95;;;9.00;99.90;;;;;;1904807;75;21047;-87
2022/03/25 04:08:30;;;;;;;7.35;4.17;;;9.00;99.90;;;;;;1884351;75;21094;-87
2022/03/25 04:11:21;;;;;;;6.65;4.10;;;9.00;99.90;;;;;;1883099;75;21121;-88
2022/03/25 04:14:13;;;;;;;4.85;3.75;;;9.10;99.90;;;;;;1883788;75;21182;-87
2022/03/25 04:17:07;;;;;;;5.92;4.08;;;9.10;99.90;;;;;;1904853;75;21119;-87
2022/03/25 04:19:59;;;;;;;7.97;3.90;;;9.10;99.90;;;;;;1885321;75;21165;-87
2022/03/25 04:22:51;;;;;;;7.60;3.83;;;9.10;99.90;;;;;;1883025;75;21083;-87
2022/03/25 04:25:42;;;;;;;5.87;4.03;;;9.10;99.90;;;;;;1882781;75;21060;-87
2022/03/25 04:28:34;;;;;;;5.80;3.87;;;9.10;99.90;;;;;;1885569;75;21075;-87
2022/03/25 04:31:27;;;;;;;5.58;4.25;;;9.10;99.90;;;;;;1883774;75;21092;-88
2022/03/25 04:34:18;;;;;;;4.83;4.00;;;9.00;99.90;;;;;;1893137;75;21161;-87
2022/03/25 04:37:10;;;;;;;4.87;4.05;;;9.00;99.90;;;;;;1895267;75;21084;-87
2022/03/25 04:40:01;;;;;;;6.58;3.75;;;8.90;99.90;;;;;;1895745;75;21180;-87
2022/03/25 04:42:54;;;;;;;4.55;3.47;;;8.90;99.90;;;;;;1888003;75;21153;-88
2022/03/25 04:45:49;;;;;;;5.35;3.90;;;8.90;99.90;;;;;;1882933;75;21146;-87
2022/03/25 04:48:40;;;;;;;7.10;4.00;;;8.90;99.90;;;;;;1882285;75;21161;-87
2022/03/25 04:51:32;;;;;;;5.45;3.80;;;8.80;99.90;;;;;;1882919;74;21165;-87
2022/03/25 04:54:23;;;;;;;5.92;4.33;;;8.70;99.90;;;;;;1907882;74;21116;-87
2022/03/25 04:57:15;;;;;;;4.97;3.98;;;8.70;99.90;;;;;;1907184;74;21055;-87
2022/03/25 05:00:08;;;;;;;6.15;3.85;;;8.70;99.90;;;;;;1900191;74;21524;-87
2022/03/25 05:03:00;;;;;;;8.40;4.37;;;8.70;99.90;;;;;;1919764;74;21050;-87
2022/03/25 05:05:53;;;;;;;6.70;3.77;;;8.70;99.90;;;;;;1898356;74;21161;-87
2022/03/25 05:08:44;;;;;;;7.55;4.53;;;8.70;99.90;;;;;;1897327;74;21565;-87
2022/03/25 05:11:38;;;;;;;7.65;4.53;;;8.70;99.90;;;;;;1908562;74;21161;-87
2022/03/25 05:14:30;;;;;;;6.92;4.62;;;8.70;99.90;;;;;;1909801;74;21035;-88
2022/03/25 05:17:22;;;;;;;6.55;4.20;;;8.60;99.90;;;;;;1907472;74;21152;-88
2022/03/25 05:20:16;;;;;;;5.33;3.95;;;8.60;99.90;;;;;;1910755;74;21042;-87
2022/03/25 05:23:08;;;;;;;7.92;4.37;;;8.50;99.90;;;;;;1906680;74;21090;-88
2022/03/25 05:26:00;;;;;;;9.50;4.62;;;8.40;99.90;;;;;;1897865;74;21050;-88
2022/03/25 05:28:54;;;;;;;7.10;4.30;;;8.40;99.90;;;;;;1902802;74;21058;-88
2022/03/25 05:31:45;;;;;;;7.20;4.42;;;8.40;99.90;;;;;;1914061;74;21176;-88
2022/03/25 05:34:37;;;;;;;7.78;4.35;;;8.40;99.90;;;;;;1893659;76;21055;-88
2022/03/25 05:37:28;;;;;;;7.95;4.50;;;8.40;99.90;;;;;;1903240;74;21047;-87
2022/03/25 05:40:22;;;;;;;6.42;4.15;;;8.40;99.90;;;;;;1905557;74;21962;-88
2022/03/25 05:43:14;;;;;;;8.40;4.67;;;8.40;99.90;;;;;;1906040;74;21063;-87
2022/03/25 05:46:06;;;;;;;6.65;4.58;;;8.50;99.90;;;;;;1894692;76;21098;-86
2022/03/25 05:48:57;;;;;;;7.20;5.03;;;8.50;99.90;;;;;;1905216;74;21697;-88
2022/03/25 05:51:48;;;;;;;8.38;4.80;;;8.50;99.90;;;;;;1903357;74;21055;-88
2022/03/25 05:54:40;;;;;;;9.03;5.30;;;8.50;99.90;;;;;;1904426;74;21179;-88
2022/03/25 05:57:32;;;;;;;8.03;4.45;;;8.50;99.90;;;;;;1873034;76;21113;-87
2022/03/25 06:00:24;;;;;;;7.70;5.20;;;8.50;99.90;;;;;;1912124;74;21051;-88
2022/03/25 06:03:15;;;;;;;6.40;4.70;;;8.50;99.90;;;;;;1910780;74;21114;-87
2022/03/25 06:06:08;;;;;;;8.25;5.22;;;8.40;99.90;;;;;;1910703;74;21067;-87
2022/03/25 06:11:38;;;;;;;6.92;4.40;;;8.50;99.90;;;;;;1943511;72;22200;-88
2022/03/25 06:14:48;;;;;;;7.97;4.92;;;8.50;99.90;;;;;;1916318;75;21133;-87
2022/03/25 06:17:47;;;;;;;7.70;4.85;;;8.50;99.90;;;;;;1917428;75;21133;-86
2022/03/25 06:20:38;;;;;;;9.78;4.95;;;8.40;99.90;;;;;;1897785;75;21523;-86
2022/03/25 06:23:30;;;;;;;11.00;5.33;;;8.50;99.90;;;;;;1917553;75;21208;-87
2022/03/25 06:26:21;;;;;;;8.30;5.00;;;8.50;99.90;;;;;;1916984;75;21063;-87
2022/03/25 06:29:13;;;;;;;8.93;5.37;;;8.50;99.90;;;;;;1918038;75;21105;-87
2022/03/25 06:32:06;;;;;;;9.98;4.78;;;8.50;99.90;;;;;;1917538;75;21094;-87
2022/03/25 06:34:59;;;;;;;8.68;4.85;;;8.50;99.90;;;;;;1917693;75;21115;-88
2022/03/25 06:37:51;;;;;;;9.23;5.72;;;8.60;99.90;;;;;;1898168;75;21523;-87
2022/03/25 06:40:43;;;;;;;8.80;5.08;;;8.60;99.90;;;;;;1917669;75;21055;-87
2022/03/25 06:43:35;;;;;;;9.63;5.78;;;8.70;99.90;;;;;;1917653;75;21116;-87
2022/03/25 06:46:26;;;;;;;7.50;5.00;;;8.70;99.90;;;;;;1917577;75;21145;-87
2022/03/25 06:49:19;;;;;;;8.10;5.12;;;8.70;99.90;;;;;;1915818;75;21170;-88
2022/03/25 06:52:12;;;;;;;9.70;5.50;;;8.80;99.90;;;;;;1888588;75;21175;-87
2022/03/25 06:55:05;;;;;;;11.78;5.65;;;8.80;99.90;;;;;;1917361;75;21059;-88
2022/03/25 06:57:58;;;;;;;9.88;5.80;;;8.90;99.90;;;;;;1917453;75;21109;-89
2022/03/25 07:00:52;;;;;;;9.33;5.42;;;9.00;99.90;;;;;;1917668;75;21109;-87
2022/03/25 07:03:44;;;;;;;9.80;5.63;;;9.00;99.90;;;;;;1898315;75;21051;-87
2022/03/25 07:06:38;;;;;;;10.13;5.97;;;9.10;99.90;;;;;;1917447;75;21175;-87
2022/03/25 07:09:30;;;;;;;9.50;5.90;;;9.10;99.90;;;;;;1916950;75;21156;-87
2022/03/25 07:12:23;;;;;;;12.55;5.70;;;9.10;99.90;;;;;;1906625;75;21115;-88
2022/03/25 07:15:14;;;;;;;7.28;5.78;;;9.20;99.90;;;;;;1872172;75;21063;-88
2022/03/25 07:18:06;;;;;;;11.78;5.92;;;9.30;99.90;;;;;;1905046;75;21108;-86
2022/03/25 07:21:00;;;;;;;8.58;5.92;;;9.30;99.90;;;;;;1913354;75;21098;-88
2022/03/25 07:23:51;;;;;;;11.30;6.17;;;9.40;99.90;;;;;;1917096;75;21130;-87
2022/03/25 07:26:43;;;;;;;10.32;6.03;;;9.50;99.90;;;;;;1904446;75;21094;-87
2022/03/25 07:29:36;;;;;;;10.72;6.15;;;9.50;99.90;;;;;;1882160;74;21166;-87
2022/03/25 07:32:28;;;;;;;11.60;6.30;;;9.60;99.90;;;;;;1901710;75;21579;-88
2022/03/25 07:35:19;;;;;;;11.57;6.80;;;9.80;99.90;;;;;;1901434;75;21204;-87
2022/03/25 07:40:52;;;;;;;8.28;5.40;;;9.80;99.90;;;;;;1937374;72;22240;-88
2022/03/25 07:44:01;;;;;;;11.03;5.83;;;9.80;99.90;;;;;;1904794;75;21093;-88
2022/03/25 07:46:52;;;;;;;11.78;5.40;;;9.90;99.90;;;;;;1901788;75;21220;-88
2022/03/25 07:49:45;;;;;;;11.05;5.90;;;10.00;99.90;;;;;;1883943;75;21569;-87
2022/03/25 07:55:50;;;;;;;11.50;6.05;;;10.10;99.90;;;;;;1941574;72;22202;-88
2022/03/25 07:58:59;;;;;;;11.53;5.87;;;10.20;99.90;;;;;;1898478;75;21140;-87
2022/03/25 08:01:52;;;;;;;12.28;6.45;;;10.30;99.90;;;;;;1916915;75;21047;-87
2022/03/25 08:04:44;;;;;;;10.28;5.83;;;10.30;99.90;;;;;;1890954;75;21280;-87
2022/03/25 08:07:41;;;;;;;13.13;6.78;;;10.50;99.90;;;;;;1912312;73;21153;-87
2022/03/25 08:10:34;;;;;;;15.08;6.65;;;10.60;99.90;;;;;;1900816;75;21114;-88
2022/03/25 08:13:25;;;;;;;9.98;5.50;;;10.60;99.90;;;;;;1897262;75;21051;-87
2022/03/25 08:16:18;;;;;;;9.13;6.58;;;10.80;99.90;;;;;;1887894;75;21138;-87
2022/03/25 08:21:50;;;;;;;10.08;5.90;;;10.90;99.90;;;;;;1957706;72;22150;-89
2022/03/25 08:28:25;;;;;;;8.55;5.70;;;11.10;99.90;;;;;;1917562;75;21690;-87
2022/03/25 08:31:17;;;;;;;8.70;5.55;;;11.20;99.90;;;;;;1917690;75;21052;-87
2022/03/25 08:34:14;;;;;;;12.05;7.20;;;11.30;99.90;;;;;;1917632;75;21106;-87
2022/03/25 08:37:02;;;;;;;8.48;5.40;;;11.40;99.90;;;;;;1917499;75;21154;-87
2022/03/25 08:39:54;;;;;;;7.15;5.80;;;11.50;99.90;;;;;;1917768;75;21062;-87
2022/03/25 08:42:45;;;;;;;8.33;5.67;;;11.50;99.90;;;;;;1933118;73;21470;-88
2022/03/25 08:45:38;;;;;;;7.78;4.70;;;11.60;99.90;;;;;;1912297;75;21067;-87
2022/03/25 08:48:31;;;;;;;9.98;5.53;;;11.70;99.90;;;;;;1924011;73;21055;-90
2022/03/25 08:51:23;;;;;;;8.18;5.03;;;11.80;99.90;;;;;;1941199;73;21106;-86
2022/03/25 08:54:14;;;;;;;9.55;5.75;;;11.90;99.90;;;;;;1917453;73;21128;-86
2022/03/25 08:57:06;;;;;;;10.13;5.08;;;12.10;99.90;;;;;;1917149;73;21114;-86
2022/03/25 08:59:57;;;;;;;9.13;4.65;;;12.20;99.90;;;;;;1924053;73;21054;-87
2022/03/25 09:02:50;;;;;;;7.22;5.17;;;12.20;99.90;;;;;;1890230;75;21062;-87
2022/03/25 09:05:41;;;;;;;8.18;4.87;;;12.40;99.90;;;;;;1917634;75;21063;-88
2022/03/25 09:08:33;;;;;;;7.70;4.85;;;12.50;99.90;;;;;;1917692;75;21115;-87
2022/03/25 09:11:24;;;;;;;10.38;4.85;;;12.60;99.90;;;;;;1940103;73;21062;-88
2022/03/25 09:14:17;;;;;;;9.45;6.03;;;12.80;99.90;;;;;;1917543;75;21137;-86
2022/03/25 09:17:09;;;;;;;7.60;5.47;;;12.80;99.90;;;;;;1917872;75;21503;-86
2022/03/25 09:20:02;;;;;;;7.55;5.15;;;13.00;99.90;;;;;;1917681;75;21563;-87
2022/03/25 09:22:54;;;;;;;10.55;5.37;;;13.10;99.90;;;;;;1940322;73;21079;-87
2022/03/25 09:25:46;;;;;;;9.80;5.60;;;13.10;99.90;;;;;;1917545;75;21047;-86
2022/03/25 09:28:39;;;;;;;9.93;5.37;;;13.20;99.90;;;;;;1917455;75;21128;-88
2022/03/25 09:31:31;;;;;;;10.32;6.12;;;13.30;99.90;;;;;;1925675;73;21098;-87
2022/03/25 09:37:34;;;;;;;12.75;6.53;;;13.50;99.90;;;;;;1949303;73;21086;-87
2022/03/25 09:40:28;;;;;;;13.20;5.95;;;13.60;99.90;;;;;;1923650;73;21588;-87
2022/03/25 09:46:02;;;;;;;10.40;5.45;;;13.80;99.90;;;;;;1955551;72;22202;-89
2022/03/25 09:51:51;;;;;;;13.65;5.22;;;14.00;99.90;;;;;;1947079;72;22169;-88
2022/03/25 09:55:03;;;;;;;12.15;5.80;;;14.10;99.90;;;;;;1895293;75;21172;-87
2022/03/25 09:57:55;;;;;;;12.78;7.17;;;14.10;99.90;;;;;;1895447;75;21147;-86
2022/03/25 10:00:51;;;;;;;16.32;5.62;;;14.20;99.90;;;;;;1908747;75;21142;-88
2022/03/25 10:03:44;;;;;;;9.13;5.27;;;14.30;99.90;;;;;;1924064;73;21138;-87
2022/03/25 10:06:47;;;;;;;9.35;5.85;;;14.30;99.90;;;;;;1903121;73;21055;-88
2022/03/25 10:09:44;;;;;;;10.35;6.42;;;14.30;99.90;;;;;;1906757;75;21102;-88
2022/03/25 10:15:21;;;;;;;7.92;5.30;;;14.60;99.90;;;;;;1930321;72;22763;-76
2022/03/25 10:18:31;;;;;;;8.65;5.55;;;14.70;99.90;;;;;;1916258;74;21106;-77
2022/03/25 10:21:22;;;;;;;12.65;6.08;;;14.80;99.90;;;;;;1903983;74;21150;-76
2022/03/25 10:24:13;;;;;;;9.05;5.28;;;14.80;99.90;;;;;;1903775;74;21096;-75
2022/03/25 10:27:07;;;;;;;10.65;6.17;;;14.90;99.90;;;;;;1899426;74;21578;-75
2022/03/25 10:30:00;;;;;;;12.05;6.80;;;15.00;99.90;;;;;;1882739;76;21113;-77
2022/03/25 10:32:51;;;;;;;8.63;5.35;;;15.10;99.90;;;;;;1893196;75;21106;-76
2022/03/25 10:35:58;;;;;;;8.65;5.42;;;15.20;99.00;;;;;;1904817;75;21138;-75
2022/03/25 10:38:53;;;;;;;12.98;5.90;;;15.20;99.00;;;;;;1905041;74;21163;-76
2022/03/25 10:41:49;;;;;;;10.95;5.83;;;15.30;98.70;;;;;;1919051;74;21221;-75
2022/03/25 10:44:41;;;;;;;9.95;5.83;;;15.40;98.70;;;;;;1915013;74;21793;-75
2022/03/25 10:47:33;;;;;;;17.23;5.90;;;15.50;98.50;;;;;;1919532;74;21163;-75
2022/03/25 10:50:25;;;;;;;9.20;5.62;;;15.60;98.40;;;;;;1903016;74;21047;-75
2022/03/25 10:53:17;;;;;;;10.10;5.58;;;15.60;98.50;;;;;;1885530;75;21066;-75
2022/03/25 10:56:10;;;;;;;11.60;6.00;;;15.70;98.10;;;;;;1909065;75;21116;-75
2022/03/25 10:59:02;;;;;;;7.67;5.42;;;15.70;97.60;;;;;;1896104;74;21104;-76
2022/03/25 11:01:56;;;;;;;8.18;5.40;;;15.70;96.80;;;;;;1908238;75;21145;-75
2022/03/25 11:07:29;;;;;;;9.08;5.55;;;15.90;96.60;;;;;;1945526;72;22291;-75
2022/03/25 11:10:39;;;;;;;11.15;5.92;;;16.00;96.40;;;;;;1911016;73;21382;-77
2022/03/25 11:13:31;;;;;;;8.60;5.62;;;16.00;96.30;;;;;;1907108;73;21050;-75
2022/03/25 11:16:23;;;;;;;8.95;5.72;;;16.10;96.20;;;;;;1896469;73;21224;-75
2022/03/25 11:19:15;;;;;;;12.35;5.95;;;16.10;94.70;;;;;;1918656;73;21168;-75
2022/03/25 11:22:08;;;;;;;10.50;5.10;;;16.20;94.90;;;;;;1912468;73;21169;-75
2022/03/25 11:25:02;;;;;;;8.35;5.45;;;16.40;93.50;;;;;;1924818;73;21039;-75
2022/03/25 11:27:58;;;;;;;7.92;4.92;;;16.40;93.50;;;;;;1910098;73;21105;-76
2022/03/25 11:31:00;;;;;;;8.00;4.92;;;16.60;92.10;;;;;;1874956;75;21233;-77
2022/03/25 11:34:10;;;;;;;8.18;5.37;;;16.70;91.10;;;;;;1887622;75;21834;-77
2022/03/25 11:37:24;;;;;;;7.67;5.25;;;16.80;89.60;;;;;;1896421;75;21043;-75
2022/03/25 11:43:17;;;;;;;8.73;4.90;;;17.00;85.60;;;;;;1952613;72;22295;-74
2022/03/25 11:46:30;;;;;;;7.58;5.10;;;17.00;84.50;;;;;;1917206;75;21094;-76
2022/03/25 11:49:24;;;;;;;7.50;4.60;;;17.20;82.00;;;;;;1934529;73;21047;-76
2022/03/25 11:52:33;;;;;;;7.67;4.60;;;17.30;77.20;;;;;;1917699;75;21055;-75
2022/03/25 11:55:25;;;;;;;8.28;4.75;;;17.40;77.70;;;;;;1940055;73;21195;-76
2022/03/25 11:58:16;;;;;;;14.43;5.70;;;17.40;78.80;;;;;;1917976;75;21133;-75
2022/03/25 12:01:19;;;;;;;9.85;6.15;;;17.70;76.00;;;;;;1917407;73;21210;-76
2022/03/25 12:04:14;;;;;;;7.90;5.47;;;17.80;76.60;;;;;;1917526;75;21051;-76
2022/03/25 12:07:09;;;;;;;7.90;5.47;;;17.80;75.80;;;;;;1917510;75;21661;-76
2022/03/25 12:10:01;;;;;;;11.38;5.60;;;17.80;75.00;;;;;;1917419;75;21113;-75
2022/03/25 12:12:57;;;;;;;8.80;6.03;;;17.80;75.80;;;;;;1917319;75;21113;-76
2022/03/25 12:15:52;;;;;;;10.68;5.90;;;18.00;73.70;;;;;;1917556;75;21102;-75
2022/03/25 12:18:46;;;;;;;8.28;6.53;;;18.20;74.50;;;;;;1917572;75;21052;-75
2022/03/25 12:21:47;;;;;;;8.00;5.85;;;18.20;73.20;;;;;;1917637;73;21089;-75
2022/03/25 12:24:39;;;;;;;9.40;5.50;;;18.20;71.80;;;;;;1917764;75;21185;-74
2022/03/25 12:27:30;;;;;;;8.48;5.85;;;18.30;71.20;;;;;;1917657;75;21136;-75
2022/03/25 12:30:22;;;;;;;12.03;5.92;;;18.40;72.40;;;;;;1917594;75;21071;-75
2022/03/25 12:33:14;;;;;;;8.08;6.03;;;18.50;72.20;;;;;;1917543;75;21574;-75
2022/03/25 12:36:09;;;;;;;9.15;5.42;;;18.60;71.00;;;;;;1917681;75;21043;-77
2022/03/25 12:39:01;;;;;;;8.40;5.92;;;18.70;70.30;;;;;;1925182;73;21059;-75
2022/03/25 12:41:53;;;;;;;12.73;5.90;;;18.70;68.10;;;;;;1925564;73;21139;-75
2022/03/25 12:44:47;;;;;;;6.30;5.30;;;18.80;68.70;;;;;;1917825;75;21128;-75
2022/03/25 12:47:43;;;;;;;7.67;5.35;;;18.80;68.70;;;;;;1917519;75;21209;-75
2022/03/25 12:50:35;;;;;;;10.13;5.55;;;19.00;68.90;;;;;;1937678;73;21062;-75
2022/03/25 12:53:29;;;;;;;6.30;4.95;;;19.00;67.50;;;;;;1910314;74;21622;-75
2022/03/25 12:56:20;;;;;;;7.25;4.83;;;19.00;67.50;;;;;;1927912;73;21154;-75
2022/03/25 12:59:12;;;;;;;9.00;5.12;;;19.00;67.50;;;;;;1933039;73;21591;-75
2022/03/25 13:02:10;;;;;;;7.15;5.50;;;19.20;67.00;;;;;;1916902;74;21064;-75
2022/03/25 13:05:19;;;;;;;;;;;19.20;67.40;;;;;;1909639;74;21063;-75
2022/03/25 13:08:11;;;;;;;6.53;4.78;;;19.30;67.40;;;;;;1904581;75;20456;-75
2022/03/25 13:11:22;;;;;;;9.73;5.17;;;19.20;67.30;;;;;;1916854;75;21095;-75
2022/03/25 13:14:17;;;;;;;7.05;4.83;;;19.40;65.60;;;;;;1927020;74;21055;-76
2022/03/25 13:17:09;;;;;;;6.97;4.90;;;19.50;65.00;;;;;;1904712;75;21136;-76
2022/03/25 13:20:02;;;;;;;7.95;5.30;;;19.40;65.90;;;;;;1916886;75;21094;-75
2022/03/25 13:23:14;;;;;;;7.92;4.75;;;19.30;65.10;;;;;;1916747;75;21142;-75
2022/03/25 13:26:08;;;;;;;6.22;4.60;;;19.50;65.70;;;;;;1916539;75;21356;-75
2022/03/25 13:28:59;;;;;;;8.13;5.72;;;19.70;64.40;;;;;;1907869;74;21174;-75
2022/03/25 13:31:54;;;;;;;6.87;5.15;;;19.80;65.80;;;;;;1930023;73;21054;-76
2022/03/25 13:34:46;;;;;;;7.67;5.03;;;19.80;65.50;;;;;;1916709;75;21066;-75
2022/03/25 13:37:39;;;;;;;8.08;5.78;;;19.90;64.30;;;;;;1926714;74;21147;-76
2022/03/25 13:40:34;;;;;;;6.97;5.60;;;20.00;64.00;;;;;;1904835;75;21055;-75
2022/03/25 13:43:28;;;;;;;9.40;5.37;;;19.90;64.90;;;;;;1911354;74;21070;-76
2022/03/25 13:46:23;;;;;;;8.93;5.50;;;19.90;65.80;;;;;;1916317;74;21550;-75
2022/03/25 13:49:17;;;;;;;13.22;6.53;;;20.10;64.30;;;;;;1877511;75;21258;-75
2022/03/25 13:52:15;;;;;;;8.85;5.60;;;19.90;66.00;;;;;;1913787;74;21099;-75
2022/03/25 13:55:18;;;;;;;9.95;5.97;;;19.90;65.10;;;;;;1913003;74;21103;-75
2022/03/25 13:58:31;;;;;;;8.93;5.83;;;19.80;65.50;;;;;;1909568;74;21092;-75
2022/03/25 14:01:36;;;;;;;8.00;5.25;;;19.90;66.00;;;;;;1918527;74;21091;-75
2022/03/25 14:04:31;;;;;;;7.58;6.33;;;20.00;63.60;;;;;;1924224;74;21414;-75
2022/03/25 14:07:46;;;;;;;8.33;5.97;;;20.10;63.80;;;;;;1921347;74;21052;-75
2022/03/25 14:10:40;;;;;;;9.18;6.15;;;20.20;63.90;;;;;;1915783;74;21077;-75
2022/03/25 14:13:32;;;;;;;10.43;6.25;;;20.40;62.80;;;;;;1902486;75;21126;-75
2022/03/25 14:16:47;;;;;;;9.88;7.20;;;20.30;64.40;;;;;;1924700;74;21051;-75
2022/03/25 14:19:40;;;;;;;8.38;6.58;;;20.20;65.90;;;;;;1886463;74;21059;-75
2022/03/25 14:22:53;;;;;;;10.98;6.62;;;20.50;66.30;;;;;;1928312;74;21050;-75
2022/03/25 14:25:50;;;;;;;10.13;6.60;;;21.30;64.80;;;;;;1910329;74;21119;-76
2022/03/25 14:28:42;;;;;;;;;;;21.80;62.60;;;;;;1913225;74;21067;-75
2022/03/25 14:31:36;;;;;;;8.35;6.60;;;22.40;60.70;;;;;;1919224;74;20128;-76
2022/03/25 14:34:51;;;;;;;8.85;7.05;;;22.40;61.20;;;;;;1914992;74;21104;-75
2022/03/25 14:37:46;;;;;;;10.48;6.28;;;22.60;60.80;;;;;;1914935;74;21059;-75
2022/03/25 14:40:45;;;;;;;9.25;6.42;;;22.50;59.60;;;;;;1910529;74;21055;-75
2022/03/25 14:43:56;;;;;;;11.75;6.30;;;22.80;59.10;;;;;;1906961;74;21137;-76
2022/03/25 14:47:07;;;;;;;7.47;5.92;;;23.10;57.00;;;;;;1887384;74;21205;-75
2022/03/25 14:50:20;;;;;;;8.43;6.75;;;23.30;55.10;;;;;;1912579;74;21504;-75
2022/03/25 14:53:52;;;;;;;9.70;7.00;;;23.30;56.50;;;;;;1846394;77;21067;-75
2022/03/25 14:57:04;;;;;;;9.05;6.30;;;22.60;58.20;;;;;;1846766;77;21507;-75
2022/03/25 14:59:57;;;;;;;9.00;6.90;;;23.40;57.00;;;;;;1845528;77;21100;-75
2022/03/25 15:02:54;;;;;;;8.88;6.72;;;23.60;55.60;;;;;;1880741;76;21164;-76
2022/03/25 15:05:48;;;;;;;10.75;6.53;;;23.50;55.10;;;;;;1881860;76;21067;-76
2022/03/25 15:08:44;;;;;;;9.70;6.80;;;23.40;55.50;;;;;;1904406;75;21055;-76
2022/03/25 15:11:38;;;;;;;9.83;7.00;;;23.50;55.90;;;;;;1904350;75;21122;-75
2022/03/25 15:14:31;;;;;;;11.97;7.53;;;23.80;54.80;;;;;;1939346;73;21124;-76
2022/03/25 15:17:24;;;;;;;10.23;7.08;;;24.00;54.60;;;;;;1916929;75;21475;-74
2022/03/25 15:20:20;;;;;;;9.53;7.10;;;23.80;54.80;;;;;;1904550;75;21107;-75
2022/03/25 15:23:15;;;;;;;10.78;7.35;;;23.80;55.40;;;;;;1917009;75;21175;-76
2022/03/25 15:26:09;;;;;;;10.25;7.40;;;24.20;55.40;;;;;;1916895;75;21184;-75
2022/03/25 15:29:07;;;;;;;8.65;6.25;;;24.20;54.70;;;;;;1939565;73;21210;-76
2022/03/25 15:35:12;;;;;;;8.83;7.25;;;23.90;53.60;;;;;;1893259;74;21055;-75
2022/03/25 15:38:09;;;;;;;9.13;6.75;;;23.80;52.60;;;;;;1904365;75;21095;-75
2022/03/25 15:41:02;;;;;;;9.78;7.30;;;24.00;53.40;;;;;;1910392;75;21066;-75
2022/03/25 15:43:55;;;;;;;11.08;7.12;;;24.00;53.00;;;;;;1916695;75;21059;-76
2022/03/25 15:46:48;;;;;;;10.95;7.60;;;23.90;53.50;;;;;;1920246;73;21103;-76